Time;durP1;ratioP1;P1;durP2;ratioP2;P2;SDS_P1;SDS_P2;PMS_P1;PMS_P2;Temp;Humidity;BMP_temperature;BMP_pressure;BME280_temperature;BME280_humidity;BME280_pressure;Samples;Min_cycle;Max_cycle;Signal;HPM_P1;HPM_P2
2023/06/29 00:00:20;;;;;;;0.82;0.80;;;;;;;14.95;100.00;97693.78;5038946;28;20438;-79
2023/06/29 00:02:48;;;;;;;2.08;0.98;;;;;;;14.92;100.00;97692.16;5039284;28;20404;-80
2023/06/29 00:05:13;;;;;;;0.93;0.43;;;;;;;14.92;100.00;97685.94;5055261;28;20071;-80
2023/06/29 00:07:39;;;;;;;2.05;1.25;;;;;;;14.92;100.00;97669.78;5039289;28;20064;-80
2023/06/29 00:10:06;;;;;;;1.80;0.63;;;;;;;14.94;100.00;97681.28;5038675;28;20036;-81
2023/06/29 00:12:32;;;;;;;1.15;0.32;;;;;;;14.92;100.00;97672.47;5035627;28;20385;-80
2023/06/29 00:14:57;;;;;;;0.28;0.28;;;;;;;14.91;100.00;97668.06;5036526;28;20098;-80
2023/06/29 00:17:22;;;;;;;0.40;0.40;;;;;;;14.88;100.00;97663.75;5037237;28;20028;-80
2023/06/29 00:19:48;;;;;;;2.50;0.90;;;;;;;14.94;100.00;97660.59;5038338;28;20021;-79
2023/06/29 00:22:14;;;;;;;0.85;0.85;;;;;;;14.98;100.00;97650.44;5038560;28;20404;-80
2023/06/29 00:24:43;;;;;;;1.85;0.95;;;;;;;15.01;100.00;97661.81;5038004;28;20052;-79
2023/06/29 00:27:13;;;;;;;0.68;0.55;;;;;;;15.06;100.00;97669.56;5055397;28;20024;-79
2023/06/29 00:29:42;;;;;;;2.25;1.20;;;;;;;15.12;100.00;97663.69;5038585;28;20024;-79
2023/06/29 00:32:12;;;;;;;1.73;0.82;;;;;;;15.10;100.00;97665.66;5036515;28;20429;-79
2023/06/29 00:34:38;;;;;;;1.38;0.90;;;;;;;15.05;100.00;97679.47;5038545;28;20123;-79
2023/06/29 00:37:04;;;;;;;0.30;0.30;;;;;;;14.99;100.00;97679.06;5038118;28;20108;-78
2023/06/29 00:39:30;;;;;;;0.38;0.35;;;;;;;14.98;100.00;97677.38;5038304;28;20020;-78
2023/06/29 00:41:56;;;;;;;0.70;0.70;;;;;;;14.93;100.00;97672.34;5038218;28;20043;-78
2023/06/29 00:44:22;;;;;;;0.77;0.77;;;;;;;14.87;100.00;97661.16;5037931;28;20021;-78
2023/06/29 00:46:48;;;;;;;1.15;1.05;;;;;;;14.89;100.00;97656.53;5038387;28;20024;-78
2023/06/29 00:49:14;;;;;;;2.10;0.90;;;;;;;14.92;100.00;97672.47;5054738;28;20404;-78
2023/06/29 00:51:40;;;;;;;1.00;0.65;;;;;;;14.85;100.00;97660.44;5054812;28;20025;-78
2023/06/29 00:54:05;;;;;;;0.70;0.47;;;;;;;14.76;100.00;97642.31;5038028;28;20151;-79
2023/06/29 00:56:32;;;;;;;0.93;0.73;;;;;;;14.71;100.00;97650.72;5024195;28;20024;-78
2023/06/29 00:58:58;;;;;;;0.65;0.57;;;;;;;14.68;100.00;97653.66;5037914;28;20448;-79
2023/06/29 01:01:23;;;;;;;1.83;0.90;;;;;;;14.69;100.00;97639.22;5037761;28;20032;-79
2023/06/29 01:03:49;;;;;;;0.70;0.70;;;;;;;14.65;100.00;97641.28;5037920;28;20545;-79
2023/06/29 01:06:20;;;;;;;1.55;0.45;;;;;;;14.68;100.00;97642.88;5037202;28;20032;-79
2023/06/29 01:08:48;;;;;;;2.17;1.05;;;;;;;14.67;100.00;97646.56;5053995;28;20408;-79
2023/06/29 01:11:14;;;;;;;2.08;0.43;;;;;;;14.59;100.00;97649.84;5037245;28;20167;-79
2023/06/29 01:13:42;;;;;;;1.52;0.85;;;;;;;14.46;100.00;97640.09;5037654;28;20035;-79
2023/06/29 01:16:08;;;;;;;1.65;0.63;;;;;;;14.41;100.00;97635.09;5037850;28;20452;-79
2023/06/29 01:18:34;;;;;;;0.25;0.15;;;;;;;14.45;100.00;97636.59;5037504;28;20125;-79
2023/06/29 01:21:01;;;;;;;4.20;0.85;;;;;;;14.57;100.00;97645.53;5054314;28;20491;-79
2023/06/29 01:23:34;;;;;;;0.95;0.73;;;;;;;14.65;100.00;97640.41;5045835;28;20024;-79
2023/06/29 01:26:00;;;;;;;1.38;0.60;;;;;;;14.73;100.00;97656.88;5031815;28;20025;-79
2023/06/29 01:28:25;;;;;;;0.73;0.55;;;;;;;14.76;100.00;97650.38;5053435;28;20024;-78
2023/06/29 01:30:51;;;;;;;0.47;0.20;;;;;;;14.75;100.00;97649.53;5037413;28;20032;-79
2023/06/29 01:33:19;;;;;;;0.40;0.40;;;;;;;14.62;100.00;97636.13;5036980;28;20500;-79
2023/06/29 01:35:45;;;;;;;0.57;0.50;;;;;;;14.55;100.00;97631.34;5049815;28;20440;-78
2023/06/29 01:38:15;;;;;;;0.40;0.40;;;;;;;14.54;100.00;97630.50;5034471;28;20037;-78
2023/06/29 01:40:44;;;;;;;0.65;0.60;;;;;;;14.38;100.00;97629.06;5037396;28;20094;-79
2023/06/29 01:43:09;;;;;;;0.15;0.15;;;;;;;14.38;100.00;97631.78;5036928;28;20512;-78
2023/06/29 01:45:36;;;;;;;0.30;0.30;;;;;;;14.30;100.00;97626.94;5037226;28;20028;-79
2023/06/29 01:48:01;;;;;;;0.38;0.38;;;;;;;14.22;100.00;97623.97;5037106;28;20025;-79
2023/06/29 01:50:27;;;;;;;0.28;0.28;;;;;;;14.19;100.00;97634.94;5036689;28;20120;-79
2023/06/29 01:52:53;;;;;;;0.50;0.50;;;;;;;14.08;100.00;97641.16;5037126;28;20028;-79
2023/06/29 01:55:19;;;;;;;4.57;0.43;;;;;;;14.12;100.00;97641.75;5037285;28;20024;-79
2023/06/29 01:57:44;;;;;;;0.40;0.40;;;;;;;14.02;100.00;97635.38;5030054;28;20028;-79
2023/06/29 02:00:11;;;;;;;1.38;0.75;;;;;;;13.92;100.00;97637.88;5037194;28;20025;-79
2023/06/29 02:02:36;;;;;;;1.00;0.50;;;;;;;13.88;100.00;97633.69;5036689;28;20026;-79
2023/06/29 02:05:02;;;;;;;2.47;0.85;;;;;;;14.00;100.00;97639.97;5037040;28;20107;-79
2023/06/29 02:07:27;;;;;;;1.45;0.55;;;;;;;13.95;100.00;97644.84;5030251;28;20063;-79
2023/06/29 02:09:53;;;;;;;0.57;0.55;;;;;;;14.06;100.00;97644.91;5036617;28;20028;-79
2023/06/29 02:12:18;;;;;;;0.30;0.28;;;;;;;14.14;100.00;97642.53;5036445;28;20028;-79
2023/06/29 02:14:44;;;;;;;1.45;0.52;;;;;;;14.24;100.00;97653.47;5036457;28;20024;-79
2023/06/29 02:17:09;;;;;;;0.85;0.47;;;;;;;14.28;100.00;97666.53;5052674;28;20039;-79
2023/06/29 02:19:35;;;;;;;1.58;0.77;;;;;;;14.29;100.00;97652.13;5035963;28;20032;-79
2023/06/29 02:22:00;;;;;;;6.03;1.60;;;;;;;14.38;100.00;97656.00;5036806;28;20040;-80
2023/06/29 02:24:26;;;;;;;0.77;0.70;;;;;;;14.42;100.00;97652.09;5036188;28;20039;-79
2023/06/29 02:26:52;;;;;;;2.05;0.98;;;;;;;14.38;100.00;97651.47;5036375;28;20028;-79
2023/06/29 02:29:18;;;;;;;3.28;0.63;;;;;;;14.34;100.00;97660.75;5036507;28;20124;-79
2023/06/29 02:31:43;;;;;;;0.55;0.55;;;;;;;14.28;100.00;97655.78;5036236;28;20031;-79
2023/06/29 02:34:09;;;;;;;0.98;0.73;;;;;;;14.31;100.00;97660.94;5030518;28;20045;-79
2023/06/29 02:36:34;;;;;;;0.70;0.68;;;;;;;14.18;100.00;97660.13;5017677;28;20499;-80
2023/06/29 02:39:00;;;;;;;2.85;0.82;;;;;;;14.28;100.00;97660.31;5023641;28;20519;-79
2023/06/29 02:41:26;;;;;;;2.65;1.17;;;;;;;14.22;100.00;97667.00;5017270;28;20032;-80
2023/06/29 02:43:52;;;;;;;0.65;0.65;;;;;;;14.24;100.00;97662.38;5035984;28;20028;-79
2023/06/29 02:46:18;;;;;;;0.55;0.20;;;;;;;14.24;100.00;97665.09;5053270;28;20029;-79
2023/06/29 02:48:44;;;;;;;0.38;0.38;;;;;;;14.28;100.00;97669.25;5052515;28;20078;-80
2023/06/29 02:51:09;;;;;;;1.13;0.88;;;;;;;14.27;100.00;97675.63;5023042;28;20473;-80
2023/06/29 02:53:35;;;;;;;0.38;0.35;;;;;;;14.31;100.00;97669.00;5016722;28;20028;-80
2023/06/29 02:56:00;;;;;;;0.35;0.35;;;;;;;14.28;100.00;97671.94;5027694;28;20468;-78
2023/06/29 02:58:26;;;;;;;0.70;0.70;;;;;;;14.24;100.00;97670.47;5035924;28;20032;-79
2023/06/29 03:00:51;;;;;;;0.90;0.63;;;;;;;14.21;100.00;97667.13;5033314;28;20028;-79
2023/06/29 03:03:17;;;;;;;1.17;0.63;;;;;;;14.17;100.00;97663.81;5032544;28;20021;-79
2023/06/29 03:05:43;;;;;;;0.20;0.20;;;;;;;14.11;100.00;97658.88;5033867;28;20086;-79
2023/06/29 03:08:08;;;;;;;0.32;0.32;;;;;;;14.07;100.00;97669.00;5036150;28;20431;-79
2023/06/29 03:10:34;;;;;;;1.08;0.68;;;;;;;14.06;100.00;97666.41;5035492;28;20033;-79
2023/06/29 03:12:59;;;;;;;1.35;0.93;;;;;;;14.02;100.00;97660.44;5052638;28;20469;-79
2023/06/29 03:15:25;;;;;;;1.40;0.55;;;;;;;14.06;100.00;97667.28;5035653;28;20035;-78
2023/06/29 03:17:50;;;;;;;1.20;0.52;;;;;;;14.09;100.00;97674.25;5035660;28;20400;-78
2023/06/29 03:20:16;;;;;;;0.50;0.32;;;;;;;14.19;100.00;97675.31;5035999;28;20040;-79
2023/06/29 03:22:42;;;;;;;0.45;0.45;;;;;;;14.21;100.00;97670.69;5035827;28;20032;-78
2023/06/29 03:25:09;;;;;;;1.48;0.93;;;;;;;14.21;100.00;97676.06;5035646;28;20575;-78
2023/06/29 03:27:35;;;;;;;0.63;0.63;;;;;;;14.35;100.00;97681.31;5052379;28;20024;-79
2023/06/29 03:30:00;;;;;;;0.73;0.57;;;;;;;14.46;100.00;97686.72;5038057;28;20025;-78
2023/06/29 03:32:26;;;;;;;0.60;0.60;;;;;;;14.54;100.00;97689.72;5039434;28;20027;-78
2023/06/29 03:34:51;;;;;;;1.23;0.77;;;;;;;14.62;100.00;97692.69;5039446;28;20033;-78
2023/06/29 03:37:17;;;;;;;0.45;0.45;;;;;;;14.74;100.00;97687.31;5039821;28;20431;-78
2023/06/29 03:39:42;;;;;;;0.55;0.50;;;;;;;14.77;100.00;97689.78;5055896;28;20086;-79
2023/06/29 03:42:08;;;;;;;2.35;0.73;;;;;;;14.82;100.00;97688.47;5039315;28;20053;-79
2023/06/29 03:44:34;;;;;;;2.30;0.95;;;;;;;14.92;100.00;97697.53;5056147;28;20564;-79
2023/06/29 03:46:59;;;;;;;0.70;0.65;;;;;;;14.92;100.00;97688.63;5055311;28;20039;-78
2023/06/29 03:49:25;;;;;;;2.67;1.23;;;;;;;14.93;100.00;97690.31;5039132;28;20024;-79
2023/06/29 03:51:51;;;;;;;0.73;0.45;;;;;;;14.95;100.00;97694.63;5039249;28;20476;-79
2023/06/29 03:54:16;;;;;;;0.45;0.45;;;;;;;14.97;100.00;97684.59;5039014;28;20035;-78
2023/06/29 03:56:41;;;;;;;7.13;1.02;;;;;;;15.03;100.00;97686.81;5039215;28;20385;-79
2023/06/29 03:59:07;;;;;;;0.80;0.77;;;;;;;15.01;100.00;97693.31;5038972;28;20068;-79
2023/06/29 04:01:33;;;;;;;0.65;0.65;;;;;;;14.98;100.00;97690.84;5073477;28;20053;-80
2023/06/29 04:03:58;;;;;;;1.70;1.02;;;;;;;15.00;100.00;97692.44;5039012;28;20032;-79
2023/06/29 04:06:24;;;;;;;0.52;0.52;;;;;;;15.12;100.00;97688.78;5038930;28;20055;-79
2023/06/29 04:08:49;;;;;;;1.02;0.77;;;;;;;15.12;100.00;97690.63;5038978;28;20051;-79
2023/06/29 04:11:15;;;;;;;4.47;0.95;;;;;;;15.00;100.00;97680.81;5038663;28;20032;-80
2023/06/29 04:13:40;;;;;;;1.55;0.52;;;;;;;15.02;100.00;97686.91;5055367;28;20036;-76
2023/06/29 04:16:06;;;;;;;2.90;1.10;;;;;;;15.10;100.00;97688.03;5055165;28;20033;-76
2023/06/29 04:18:31;;;;;;;1.52;1.15;;;;;;;15.16;100.00;97686.72;5055263;28;20029;-76
2023/06/29 04:20:57;;;;;;;0.57;0.57;;;;;;;15.33;100.00;97683.56;5055122;28;20029;-75
2023/06/29 04:23:22;;;;;;;1.00;0.68;;;;;;;15.38;100.00;97678.63;5034557;28;20043;-75
2023/06/29 04:25:48;;;;;;;2.03;0.73;;;;;;;15.31;100.00;97669.34;5055282;28;20032;-76
2023/06/29 04:28:13;;;;;;;0.93;0.85;;;;;;;15.49;100.00;97678.69;5055359;28;20094;-77
2023/06/29 04:30:42;;;;;;;0.50;0.45;;;;;;;15.59;100.00;97668.03;5038372;28;20028;-76
2023/06/29 04:33:11;;;;;;;2.13;0.77;;;;;;;15.44;100.00;97664.69;5054187;28;20494;-76
2023/06/29 04:35:40;;;;;;;2.83;1.02;;;;;;;15.54;100.00;97672.94;5070065;28;20404;-77
2023/06/29 04:38:08;;;;;;;2.25;1.08;;;;;;;15.63;100.00;97667.66;5054918;28;20078;-77
2023/06/29 04:40:34;;;;;;;2.70;0.98;;;;;;;15.67;100.00;97661.03;5050171;28;20491;-77
2023/06/29 04:42:59;;;;;;;0.22;0.22;;;;;;;16.00;100.00;97662.84;5055067;28;20032;-79
2023/06/29 04:45:25;;;;;;;2.25;1.45;;;;;;;16.05;100.00;97665.16;5053907;28;20094;-77
2023/06/29 04:47:50;;;;;;;5.18;1.35;;;;;;;16.05;100.00;97667.88;5040853;28;20029;-77
2023/06/29 04:50:25;;;;;;;1.55;0.52;;;;;;;15.98;100.00;97663.94;5033862;28;20115;-77
2023/06/29 04:52:55;;;;;;;1.33;0.98;;;;;;;16.11;100.00;97667.38;5037117;28;20072;-77
2023/06/29 04:55:25;;;;;;;0.55;0.22;;;;;;;16.18;100.00;97668.59;5052024;28;20076;-77
2023/06/29 04:57:51;;;;;;;2.00;1.08;;;;;;;16.34;100.00;97676.25;5051589;28;20032;-78
2023/06/29 05:00:17;;;;;;;0.98;0.73;;;;;;;16.01;100.00;97664.56;5035632;28;20039;-81
2023/06/29 05:02:42;;;;;;;3.67;0.80;;;;;;;16.08;100.00;97670.31;5035780;28;20028;-78
2023/06/29 05:05:08;;;;;;;0.65;0.45;;;;;;;16.39;100.00;97677.59;5068367;28;20042;-79
2023/06/29 05:07:34;;;;;;;1.52;0.85;;;;;;;16.55;100.00;97677.22;5054931;28;20083;-83
2023/06/29 05:10:00;;;;;;;1.55;0.93;;;;;;;16.63;100.00;97677.41;5055340;28;20025;-83
2023/06/29 05:12:26;;;;;;;1.25;0.63;;;;;;;16.96;100.00;97673.69;5053332;28;20057;-83
2023/06/29 05:14:52;;;;;;;0.95;0.52;;;;;;;17.21;100.00;97663.34;5054043;28;20032;-81
2023/06/29 05:17:17;;;;;;;0.90;0.80;;;;;;;17.38;100.00;97675.38;5054019;28;20511;-82
2023/06/29 05:19:44;;;;;;;1.10;0.75;;;;;;;17.67;100.00;97671.00;5073174;28;20028;-83
2023/06/29 05:22:10;;;;;;;0.75;0.40;;;;;;;17.92;100.00;97666.97;5055050;28;20024;-82
2023/06/29 05:24:37;;;;;;;1.30;1.02;;;;;;;18.15;100.00;97660.31;5040294;28;20024;-82
2023/06/29 05:27:03;;;;;;;1.42;1.33;;;;;;;18.49;100.00;97670.81;5057055;28;20059;-83
2023/06/29 05:29:29;;;;;;;0.10;0.10;;;;;;;18.42;100.00;97663.25;5073706;28;20108;-82
2023/06/29 05:31:54;;;;;;;3.38;0.52;;;;;;;19.15;100.00;97667.25;5038644;28;20532;-84
2023/06/29 05:34:20;;;;;;;0.55;0.40;;;;;;;19.78;100.00;97649.38;5073028;28;20131;-83
2023/06/29 05:36:45;;;;;;;2.65;1.38;;;;;;;20.20;100.00;97648.88;5054901;28;20033;-82
2023/06/29 05:39:11;;;;;;;2.90;1.17;;;;;;;20.32;100.00;97654.00;5071597;28;20463;-80
2023/06/29 05:41:38;;;;;;;2.92;0.85;;;;;;;19.89;100.00;97660.06;5053239;28;20024;-83
2023/06/29 05:44:04;;;;;;;0.60;0.60;;;;;;;20.16;100.00;97651.06;5052636;28;20028;-83
2023/06/29 05:46:30;;;;;;;0.77;0.77;;;;;;;21.10;100.00;97654.28;5035742;28;20047;-83
2023/06/29 05:48:55;;;;;;;1.75;0.90;;;;;;;21.05;100.00;97647.38;5052867;28;20051;-83
2023/06/29 05:51:21;;;;;;;1.30;0.80;;;;;;;21.19;100.00;97643.28;5070910;28;20039;-81
2023/06/29 05:53:46;;;;;;;1.13;0.93;;;;;;;21.79;100.00;97640.59;5047750;28;20032;-83
2023/06/29 05:56:12;;;;;;;1.85;1.17;;;;;;;21.70;100.00;97642.44;5052660;28;20178;-81
2023/06/29 05:58:37;;;;;;;2.22;0.68;;;;;;;21.22;100.00;97650.28;5034990;28;20060;-80
2023/06/29 06:01:04;;;;;;;0.95;0.80;;;;;;;20.99;100.00;97642.59;5052428;28;20029;-81
2023/06/29 06:03:29;;;;;;;1.02;0.85;;;;;;;20.79;100.00;97649.22;5035727;28;20123;-80
2023/06/29 06:05:55;;;;;;;0.73;0.73;;;;;;;21.75;100.00;97641.97;5051584;28;20598;-81
2023/06/29 06:08:20;;;;;;;1.60;0.90;;;;;;;22.58;100.00;97631.03;5051323;28;20036;-81
2023/06/29 06:10:46;;;;;;;0.63;0.63;;;;;;;21.82;100.00;97632.94;5035781;28;20063;-82
2023/06/29 06:13:12;;;;;;;1.20;0.80;;;;;;;22.50;100.00;97638.34;5052347;28;20090;-82
2023/06/29 06:15:38;;;;;;;0.68;0.60;;;;;;;22.91;100.00;97629.25;5067734;28;20032;-82
2023/06/29 06:18:03;;;;;;;3.78;1.45;;;;;;;22.03;100.00;97632.56;5052165;28;20039;-82
2023/06/29 06:20:29;;;;;;;3.30;1.15;;;;;;;22.95;100.00;97630.59;5051485;28;20020;-80
2023/06/29 06:22:54;;;;;;;0.60;0.55;;;;;;;24.68;100.00;97611.47;5034764;28;20050;-81
2023/06/29 06:25:20;;;;;;;1.75;1.48;;;;;;;25.91;100.00;97612.94;5057194;28;20024;-81
2023/06/29 06:27:45;;;;;;;0.82;0.82;;;;;;;25.62;100.00;97621.16;5053462;28;20128;-81
2023/06/29 06:30:11;;;;;;;1.13;1.02;;;;;;;26.63;97.58;97610.31;5034444;28;20024;-81
2023/06/29 06:32:39;;;;;;;0.55;0.35;;;;;;;27.72;85.05;97599.72;5032711;28;20419;-80
2023/06/29 06:35:07;;;;;;;3.13;1.73;;;;;;;28.38;79.40;97602.88;5017671;28;20048;-82
2023/06/29 06:37:35;;;;;;;1.40;1.23;;;;;;;28.21;77.92;97598.78;5033006;28;20036;-80
2023/06/29 06:40:00;;;;;;;9.55;2.13;;;;;;;27.72;82.71;97601.63;5033529;28;20024;-81
2023/06/29 06:42:26;;;;;;;0.85;0.85;;;;;;;27.33;82.12;97597.50;5043362;28;20099;-81
2023/06/29 06:44:53;;;;;;;1.10;1.00;;;;;;;27.44;82.58;97598.88;5038639;28;20024;-80
2023/06/29 06:47:18;;;;;;;1.10;1.00;;;;;;;27.86;81.11;97604.28;5036910;28;20032;-80
2023/06/29 06:49:45;;;;;;;1.52;1.17;;;;;;;28.21;75.47;97585.84;5036989;28;20035;-80
2023/06/29 06:52:11;;;;;;;0.70;0.70;;;;;;;28.37;76.87;97596.53;5037114;28;20028;-82
2023/06/29 06:54:36;;;;;;;0.88;0.68;;;;;;;27.85;75.94;97583.31;5037065;28;20028;-81
2023/06/29 06:57:02;;;;;;;0.43;0.35;;;;;;;28.71;75.17;97594.75;5036887;28;20486;-81
2023/06/29 06:59:27;;;;;;;0.80;0.80;;;;;;;28.65;75.35;97598.34;5036728;28;20044;-81
2023/06/29 07:01:53;;;;;;;0.60;0.60;;;;;;;29.57;73.43;97589.16;5033629;28;20037;-80
2023/06/29 07:04:18;;;;;;;0.60;0.60;;;;;;;29.85;65.59;97586.16;5033566;28;20033;-82
2023/06/29 07:06:46;;;;;;;0.32;0.32;;;;;;;28.63;74.32;97595.78;5034814;28;20033;-80
2023/06/29 07:09:12;;;;;;;0.20;0.20;;;;;;;28.85;74.18;97594.59;5033405;28;20060;-81
2023/06/29 07:11:37;;;;;;;1.50;1.25;;;;;;;30.18;63.54;97575.03;5043492;28;20488;-81
2023/06/29 07:14:04;;;;;;;6.18;4.53;;;;;;;30.38;61.27;97581.31;5026996;28;20039;-81
2023/06/29 07:16:29;;;;;;;1.48;1.23;;;;;;;29.06;66.65;97588.06;5036901;28;20024;-81
2023/06/29 07:19:04;;;;;;;0.98;0.98;;;;;;;30.01;68.38;97587.63;5041487;28;20040;-81
2023/06/29 07:21:30;;;;;;;3.65;2.17;;;;;;;30.59;62.23;97581.03;5048649;28;20025;-80
2023/06/29 07:23:55;;;;;;;0.52;0.52;;;;;;;31.45;51.92;97573.03;5042575;28;20488;-83
2023/06/29 07:26:22;;;;;;;0.95;0.68;;;;;;;31.98;49.27;97564.25;5054499;28;20056;-81
2023/06/29 07:28:48;;;;;;;1.10;0.82;;;;;;;32.76;46.49;97561.63;5034057;28;20028;-82
2023/06/29 07:31:14;;;;;;;0.95;0.90;;;;;;;33.43;43.04;97552.91;5018359;28;20036;-82
2023/06/29 07:33:41;;;;;;;0.30;0.28;;;;;;;32.85;40.68;97538.88;5047067;28;20048;-82
2023/06/29 07:36:07;;;;;;;0.40;0.40;;;;;;;31.94;43.22;97536.16;5072473;28;20038;-81
2023/06/29 07:38:33;;;;;;;0.20;0.20;;;;;;;32.71;43.32;97548.44;5053473;28;20107;-81
2023/06/29 07:40:58;;;;;;;0.20;0.20;;;;;;;33.53;41.98;97538.44;5053301;28;20112;-81
2023/06/29 07:43:24;;;;;;;5.82;2.80;;;;;;;33.36;39.13;97529.13;5036807;28;20028;-81
2023/06/29 07:45:49;;;;;;;11.07;5.00;;;;;;;32.30;42.72;97542.81;5053531;28;20036;-80
2023/06/29 07:48:15;;;;;;;3.38;2.83;;;;;;;33.15;40.36;97531.38;5053498;28;20032;-81
2023/06/29 07:50:40;;;;;;;5.70;3.03;;;;;;;33.39;39.62;97526.72;5053131;28;20420;-81
2023/06/29 07:53:23;;;;;;;8.20;3.03;;;;;;;34.04;37.48;97512.72;5053393;28;20075;-81
2023/06/29 07:55:54;;;;;;;4.72;2.85;;;;;;;34.57;37.84;97532.78;5053614;28;20111;-81
2023/06/29 07:58:19;;;;;;;3.80;2.53;;;;;;;32.49;39.47;97525.91;5070941;28;20025;-80
2023/06/29 08:00:45;;;;;;;5.47;2.88;;;;;;;33.13;39.88;97532.72;5053266;28;20036;-81
2023/06/29 08:03:10;;;;;;;8.50;3.45;;;;;;;33.00;38.62;97524.56;5052852;28;20480;-80
2023/06/29 08:05:36;;;;;;;8.60;2.58;;;;;;;32.03;39.43;97518.22;5036187;28;20029;-81
2023/06/29 08:08:01;;;;;;;5.03;2.70;;;;;;;32.50;40.06;97521.22;5052787;28;20480;-80
2023/06/29 08:10:27;;;;;;;8.48;3.55;;;;;;;34.01;39.90;97521.53;5069484;28;20090;-81
2023/06/29 08:12:53;;;;;;;3.35;3.00;;;;;;;34.03;37.87;97511.00;5050495;28;20263;-82
2023/06/29 08:15:18;;;;;;;4.28;2.70;;;;;;;34.69;36.59;97513.28;5069454;28;20040;-81
2023/06/29 08:17:44;;;;;;;9.48;2.60;;;;;;;34.14;38.10;97524.09;5038740;28;20040;-82
2023/06/29 08:20:12;;;;;;;4.00;2.10;;;;;;;34.29;36.02;97510.50;5073225;28;20062;-81
2023/06/29 08:22:43;;;;;;;6.18;1.90;;;;;;;34.24;36.34;97522.34;5055475;28;20090;-82
2023/06/29 08:25:09;;;;;;;4.32;1.90;;;;;;;33.82;36.43;97508.88;5056168;28;20126;-82
2023/06/29 08:27:35;;;;;;;7.50;2.33;;;;;;;34.06;36.24;97516.94;5039282;28;20086;-81
2023/06/29 08:30:01;;;;;;;3.67;2.30;;;;;;;33.06;38.51;97524.47;5039725;28;20026;-82
2023/06/29 08:32:26;;;;;;;13.13;5.90;;;;;;;32.24;39.04;97525.19;5055734;28;20032;-81
2023/06/29 08:34:52;;;;;;;13.27;3.97;;;;;;;31.40;39.10;97514.78;5055199;28;20474;-82
2023/06/29 08:37:17;;;;;;;6.90;4.22;;;;;;;32.34;39.24;97511.63;5039107;28;20476;-81
2023/06/29 08:39:43;;;;;;;3.13;2.30;;;;;;;33.65;38.49;97514.34;5055902;28;20024;-81
2023/06/29 08:42:08;;;;;;;3.28;2.30;;;;;;;34.20;37.01;97509.22;5056165;28;20037;-82
2023/06/29 08:44:34;;;;;;;3.05;2.00;;;;;;;34.68;35.36;97492.97;5056028;28;20086;-80
2023/06/29 08:47:01;;;;;;;4.35;2.30;;;;;;;34.46;36.36;97505.84;5055884;28;20108;-82
2023/06/29 08:49:27;;;;;;;3.22;2.33;;;;;;;32.90;39.35;97511.28;5039287;28;20090;-81
2023/06/29 08:51:58;;;;;;;6.90;2.30;;;;;;;34.19;37.39;97500.03;5039551;28;20526;-81
2023/06/29 08:54:27;;;;;;;2.90;2.60;;;;;;;34.97;35.95;97502.13;5055113;28;20024;-81
2023/06/29 08:56:53;;;;;;;5.13;2.20;;;;;;;36.29;34.92;97492.00;5055373;28;20470;-81
2023/06/29 08:59:19;;;;;;;7.45;2.88;;;;;;;35.02;34.51;97490.25;5037770;28;20107;-82
2023/06/29 09:01:45;;;;;;;6.93;2.88;;;;;;;35.68;33.68;97484.72;5055357;28;20029;-82
2023/06/29 09:04:11;;;;;;;3.63;2.30;;;;;;;35.39;34.19;97477.56;5055603;28;20032;-82
2023/06/29 09:06:37;;;;;;;2.28;1.90;;;;;;;35.01;34.39;97471.91;5038876;28;20023;-81
2023/06/29 09:09:03;;;;;;;14.68;2.63;;;;;;;34.52;34.25;97470.66;5055649;28;20047;-81
2023/06/29 09:11:35;;;;;;;4.18;1.90;;;;;;;33.74;35.85;97480.41;5055730;28;20032;-81
2023/06/29 09:14:05;;;;;;;5.05;2.42;;;;;;;34.97;34.55;97476.25;5056561;28;20024;-81
2023/06/29 09:16:31;;;;;;;2.33;1.90;;;;;;;36.78;31.78;97464.97;5055556;28;20034;-82
2023/06/29 09:18:57;;;;;;;3.60;2.35;;;;;;;36.93;32.00;97467.91;5073633;28;20341;-81
2023/06/29 09:21:23;;;;;;;4.75;1.88;;;;;;;38.32;30.13;97447.97;5055431;28;20029;-81
2023/06/29 09:23:49;;;;;;;2.08;1.83;;;;;;;37.44;30.82;97455.25;5055140;28;20025;-81
2023/06/29 09:26:17;;;;;;;4.43;2.00;;;;;;;36.39;32.70;97460.63;5038491;28;20044;-82
2023/06/29 09:28:45;;;;;;;4.22;1.95;;;;;;;37.04;31.96;97465.25;5037689;28;20029;-81
2023/06/29 09:31:12;;;;;;;11.27;7.95;;;;;;;35.40;33.11;97470.06;5054956;28;20404;-82
2023/06/29 09:33:37;;;;;;;7.63;1.90;;;;;;;33.75;35.35;97456.25;5055455;28;20056;-81
2023/06/29 09:36:07;;;;;;;5.47;2.75;;;;;;;31.17;39.51;97473.94;5055440;28;20032;-82
2023/06/29 09:38:33;;;;;;;5.63;2.00;;;;;;;30.60;39.52;97474.19;5038787;28;20028;-81
2023/06/29 09:40:59;;;;;;;2.30;1.65;;;;;;;28.93;42.92;97470.44;5055208;28;20039;-82
2023/06/29 09:43:29;;;;;;;2.33;1.83;;;;;;;27.97;46.20;97476.31;5055177;28;20492;-82
2023/06/29 09:46:07;;;;;;;4.85;2.30;;;;;;;27.28;51.49;97489.25;5038273;28;20083;-82
2023/06/29 09:48:46;;;;;;;3.17;1.70;;;;;;;29.58;44.48;97477.78;5037353;28;20017;-82
2023/06/29 09:51:21;;;;;;;5.20;1.65;;;;;;;31.88;37.78;97456.81;5054473;28;20029;-81
2023/06/29 09:53:46;;;;;;;2.30;1.70;;;;;;;31.90;38.08;97464.91;5054677;28;20028;-81
2023/06/29 09:56:13;;;;;;;2.03;1.73;;;;;;;33.42;36.01;97456.88;5037997;28;20047;-81
2023/06/29 09:58:39;;;;;;;5.57;1.98;;;;;;;34.88;34.67;97450.81;5055342;28;20030;-86
2023/06/29 10:01:04;;;;;;;4.65;1.60;;;;;;;36.28;32.94;97453.22;5039015;28;20028;-84
2023/06/29 10:03:33;;;;;;;1.70;1.48;;;;;;;36.21;33.31;97455.38;5057119;28;20021;-84
2023/06/29 10:06:03;;;;;;;2.40;1.45;;;;;;;37.25;31.76;97442.00;5038472;28;20571;-83
2023/06/29 10:08:32;;;;;;;2.10;1.65;;;;;;;37.26;30.94;97433.31;5055035;28;20420;-84
2023/06/29 10:11:01;;;;;;;3.75;1.77;;;;;;;37.12;29.86;97425.69;5038574;28;20471;-83
2023/06/29 10:13:27;;;;;;;2.40;1.52;;;;;;;38.36;27.84;97425.91;5038149;28;20024;-84
2023/06/29 10:15:53;;;;;;;1.80;1.50;;;;;;;37.07;29.49;97431.25;5054108;28;20163;-85
2023/06/29 10:18:29;;;;;;;1.77;1.60;;;;;;;36.40;30.08;97434.41;5037462;28;20461;-84
2023/06/29 10:20:55;;;;;;;2.38;1.60;;;;;;;36.81;29.02;97425.41;5054150;28;20028;-84
2023/06/29 10:23:22;;;;;;;6.63;1.73;;;;;;;37.18;29.09;97407.88;5054217;28;20025;-85
2023/06/29 10:25:48;;;;;;;3.53;2.15;;;;;;;37.12;29.74;97417.31;5054310;28;20024;-84
2023/06/29 10:28:15;;;;;;;9.07;2.08;;;;;;;37.31;29.70;97404.63;5037270;28;20032;-85
2023/06/29 10:30:47;;;;;;;9.13;7.25;;;;;;;37.53;29.30;97399.78;5038423;28;20031;-84
2023/06/29 10:33:18;;;;;;;2.58;1.52;;;;;;;38.14;28.57;97405.69;5041124;28;20048;-85
2023/06/29 10:35:51;;;;;;;9.60;2.35;;;;;;;37.90;27.96;97399.72;5044309;28;20128;-85
2023/06/29 10:38:17;;;;;;;3.40;1.40;;;;;;;36.11;29.33;97393.97;5056698;28;20028;-86
2023/06/29 10:40:49;;;;;;;4.60;1.60;;;;;;;34.77;31.79;97396.94;5037153;28;20459;-85
2023/06/29 10:43:14;;;;;;;2.50;1.70;;;;;;;35.05;31.90;97404.34;5054700;28;20025;-85
2023/06/29 10:45:40;;;;;;;2.53;1.73;;;;;;;36.83;29.84;97403.66;5054686;28;20076;-86
2023/06/29 10:48:12;;;;;;;4.28;1.58;;;;;;;37.84;28.75;97398.81;5037804;28;20025;-84
2023/06/29 10:50:43;;;;;;;10.13;1.80;;;;;;;37.87;28.44;97401.06;5072111;28;20025;-84
2023/06/29 10:53:13;;;;;;;2.90;1.77;;;;;;;36.01;31.09;97396.59;5037665;28;20107;-85
2023/06/29 10:55:43;;;;;;;1.63;1.50;;;;;;;35.42;31.04;97387.13;5037428;28;20086;-86
2023/06/29 10:58:23;;;;;;;4.38;1.60;;;;;;;36.98;28.39;97388.16;5072030;28;20033;-85
2023/06/29 11:00:51;;;;;;;1.83;1.38;;;;;;;35.52;29.68;97390.91;5037235;28;20035;-85
2023/06/29 11:03:18;;;;;;;2.05;1.52;;;;;;;35.27;31.78;97390.53;5037131;28;20464;-86
2023/06/29 11:05:47;;;;;;;4.32;1.70;;;;;;;36.11;30.46;97385.59;5037349;28;20477;-85
2023/06/29 11:08:12;;;;;;;10.00;1.80;;;;;;;38.02;28.83;97386.34;5054157;28;20099;-85
2023/06/29 11:10:38;;;;;;;4.38;2.33;;;;;;;38.05;28.45;97379.38;5072041;28;20075;-85
2023/06/29 11:13:08;;;;;;;2.03;1.58;;;;;;;37.01;29.11;97373.72;5037148;28;20025;-85
2023/06/29 11:15:34;;;;;;;3.45;1.63;;;;;;;38.60;28.62;97376.75;5054317;28;20024;-85
2023/06/29 11:18:05;;;;;;;3.53;1.50;;;;;;;38.01;28.97;97378.22;5039040;28;20020;-86
2023/06/29 11:20:31;;;;;;;4.68;1.33;;;;;;;35.49;29.92;97385.88;5038805;28;20519;-87
2023/06/29 11:22:57;;;;;;;6.72;1.80;;;;;;;33.98;32.55;97391.50;5037149;28;20481;-84
2023/06/29 11:25:23;;;;;;;2.38;1.50;;;;;;;34.07;31.80;97390.03;5037314;28;20029;-87